WZZ24M LTBA-LRIA
Flight info
| Callsign | WZZ24M |
|---|---|
| Flight time | N/A |
| Altitude | 38000 |
| Route | MAKOL1B/23 MAKOL N600 REVDA DCT PILAT DCT BCU DCT ABOLO |
| Aircraft | A21N/M-SDE3FGHIRWY/LB1 |
Departure
| Time | 2026-04-24 22:30 |
|---|---|
| Airport | İstanbul Atatürk Airport (LTBA) |
Arrival
| Time | N/A |
|---|---|
| Airport | Iaşi International Airport (LRIA) |
| Time | Latitude | Longitude | Altitude | Speed | Heading |
|---|---|---|---|---|---|
| 2026-04-24 22:05 | 40.97649 | 28.82012 | 119 ft | 0 kts | 349° |
| 2026-04-24 22:19 | 40.97645 | 28.82013 | 119 ft | 2 kts | 349° |
| 2026-04-24 22:20 | 40.97631 | 28.82017 | 118 ft | 2 kts | 349° |
| 2026-04-24 22:20 | 40.97616 | 28.82021 | 117 ft | 2 kts | 349° |
| 2026-04-24 22:20 | 40.97601 | 28.82025 | 116 ft | 2 kts | 349° |
| 2026-04-24 22:20 | 40.97585 | 28.82026 | 115 ft | 2 kts | 18° |
| 2026-04-24 22:21 | 40.97572 | 28.82017 | 115 ft | 2 kts | 45° |
| 2026-04-24 22:21 | 40.97564 | 28.82000 | 115 ft | 1 kts | 74° |
| 2026-04-24 22:21 | 40.97562 | 28.81992 | 114 ft | 1 kts | 82° |
| 2026-04-24 22:21 | 40.97562 | 28.81988 | 114 ft | 0 kts | 79° |
| 2026-04-24 22:25 | 40.97563 | 28.81994 | 114 ft | 1 kts | 79° |
| 2026-04-24 22:25 | 40.97567 | 28.82027 | 114 ft | 5 kts | 77° |
| 2026-04-24 22:25 | 40.97578 | 28.82092 | 114 ft | 8 kts | 78° |
| 2026-04-24 22:25 | 40.97592 | 28.82180 | 113 ft | 10 kts | 79° |
| 2026-04-24 22:26 | 40.97608 | 28.82292 | 110 ft | 14 kts | 79° |
| 2026-04-24 22:26 | 40.97630 | 28.82435 | 106 ft | 17 kts | 78° |
| 2026-04-24 22:26 | 40.97654 | 28.82592 | 102 ft | 14 kts | 79° |
| 2026-04-24 22:26 | 40.97681 | 28.82726 | 98 ft | 14 kts | 65° |
| 2026-04-24 22:27 | 40.97710 | 28.82872 | 92 ft | 18 kts | 79° |
| 2026-04-24 22:27 | 40.97734 | 28.83044 | 84 ft | 12 kts | 79° |
| 2026-04-24 22:27 | 40.97768 | 28.83170 | 78 ft | 17 kts | 60° |
| 2026-04-24 22:27 | 40.97830 | 28.83306 | 66 ft | 20 kts | 59° |
| 2026-04-24 22:28 | 40.97886 | 28.83453 | 54 ft | 15 kts | 85° |
| 2026-04-24 22:28 | 40.97837 | 28.83552 | 51 ft | 11 kts | 149° |
| 2026-04-24 22:28 | 40.97770 | 28.83586 | 51 ft | 10 kts | 186° |
| 2026-04-24 22:28 | 40.97737 | 28.83538 | 55 ft | 4 kts | 251° |
| 2026-04-24 22:29 | 40.97735 | 28.83531 | 56 ft | 4 kts | 246° |
| 2026-04-24 22:29 | 40.97709 | 28.83468 | 61 ft | 12 kts | 239° |
| 2026-04-24 22:29 | 40.97567 | 28.83162 | 87 ft | 74 kts | 238° |
| 2026-04-24 22:30 | 40.97169 | 28.82311 | 91 ft | 140 kts | 238° |
| 2026-04-24 22:30 | 40.96572 | 28.80999 | 236 ft | 180 kts | 238° |
| 2026-04-24 22:30 | 40.95900 | 28.79597 | 909 ft | 184 kts | 238° |
| 2026-04-24 22:30 | 40.95203 | 28.78168 | 1706 ft | 186 kts | 232° |
| 2026-04-24 22:31 | 40.94192 | 28.77212 | 2449 ft | 185 kts | 189° |
| 2026-04-24 22:31 | 40.92908 | 28.77460 | 2821 ft | 198 kts | 159° |
| 2026-04-24 22:31 | 40.91525 | 28.78171 | 2977 ft | 227 kts | 153° |
| 2026-04-24 22:31 | 40.90216 | 28.79442 | 3529 ft | 236 kts | 134° |
| 2026-04-24 22:32 | 40.89067 | 28.80931 | 4416 ft | 233 kts | 134° |
| 2026-04-24 22:32 | 40.88021 | 28.82570 | 5164 ft | 233 kts | 113° |
| 2026-04-24 22:32 | 40.87678 | 28.84630 | 5891 ft | 233 kts | 86° |
| 2026-04-24 22:32 | 40.88096 | 28.86757 | 6378 ft | 246 kts | 63° |
| 2026-04-24 22:33 | 40.88941 | 28.88824 | 6853 ft | 263 kts | 61° |
| 2026-04-24 22:33 | 40.89825 | 28.91020 | 7556 ft | 270 kts | 62° |
| 2026-04-24 22:33 | 40.90695 | 28.93235 | 8349 ft | 274 kts | 62° |
| 2026-04-24 22:33 | 40.91566 | 28.95485 | 9110 ft | 278 kts | 62° |
| 2026-04-24 22:34 | 40.92442 | 28.97769 | 9675 ft | 282 kts | 62° |
| 2026-04-24 22:34 | 40.93341 | 29.00133 | 9955 ft | 284 kts | 62° |
| 2026-04-24 22:34 | 40.94227 | 29.02467 | 9978 ft | 283 kts | 62° |
| 2026-04-24 22:34 | 40.95125 | 29.04839 | 9981 ft | 283 kts | 62° |
| 2026-04-24 22:35 | 40.96008 | 29.07177 | 9981 ft | 283 kts | 62° |
| 2026-04-24 22:35 | 40.96900 | 29.09539 | 9981 ft | 283 kts | 62° |
| 2026-04-24 22:35 | 40.97783 | 29.11879 | 9980 ft | 283 kts | 62° |
| 2026-04-24 22:35 | 40.98678 | 29.14251 | 9981 ft | 283 kts | 62° |
| 2026-04-24 22:36 | 40.99557 | 29.16588 | 9980 ft | 283 kts | 62° |
| 2026-04-24 22:36 | 41.00451 | 29.18955 | 9980 ft | 283 kts | 60° |
| 2026-04-24 22:36 | 41.01527 | 29.21161 | 9978 ft | 282 kts | 50° |
| 2026-04-24 22:36 | 41.02915 | 29.23037 | 10047 ft | 285 kts | 38° |
| 2026-04-24 22:37 | 41.04597 | 29.24632 | 10422 ft | 300 kts | 33° |
| 2026-04-24 22:37 | 41.06392 | 29.26193 | 10787 ft | 317 kts | 32° |
| 2026-04-24 22:37 | 41.08295 | 29.27834 | 11232 ft | 331 kts | 32° |
| 2026-04-24 22:37 | 41.10261 | 29.29546 | 11955 ft | 335 kts | 33° |
| 2026-04-24 22:38 | 41.11973 | 29.31641 | 12648 ft | 340 kts | 52° |
| 2026-04-24 22:38 | 41.13022 | 29.34491 | 13346 ft | 347 kts | 72° |
| 2026-04-24 22:38 | 41.13458 | 29.37641 | 14032 ft | 351 kts | 79° |
| 2026-04-24 22:38 | 41.13808 | 29.40856 | 14660 ft | 356 kts | 79° |
| 2026-04-24 22:39 | 41.14163 | 29.44134 | 15267 ft | 360 kts | 79° |
| 2026-04-24 22:39 | 41.14534 | 29.47461 | 15907 ft | 363 kts | 79° |
| 2026-04-24 22:39 | 41.14914 | 29.50792 | 16497 ft | 367 kts | 78° |
| 2026-04-24 22:39 | 41.15309 | 29.54161 | 17065 ft | 369 kts | 77° |
| 2026-04-24 22:40 | 41.16139 | 29.57330 | 17591 ft | 368 kts | 58° |
| 2026-04-24 22:40 | 41.17770 | 29.59937 | 18154 ft | 366 kts | 38° |
| 2026-04-24 22:40 | 41.19957 | 29.61648 | 18705 ft | 365 kts | 19° |
| 2026-04-24 22:40 | 41.22376 | 29.62687 | 19285 ft | 367 kts | 16° |
| 2026-04-24 22:41 | 41.24847 | 29.63699 | 19805 ft | 369 kts | 16° |
| 2026-04-24 22:41 | 41.27307 | 29.64715 | 20329 ft | 372 kts | 16° |
| 2026-04-24 22:41 | 41.29820 | 29.65766 | 20859 ft | 374 kts | 17° |
| 2026-04-24 22:41 | 41.32344 | 29.66832 | 21355 ft | 377 kts | 17° |
| 2026-04-24 22:42 | 41.34876 | 29.67906 | 21858 ft | 379 kts | 17° |
| 2026-04-24 22:42 | 41.37403 | 29.68981 | 22332 ft | 381 kts | 17° |
| 2026-04-24 22:42 | 41.39967 | 29.70073 | 22785 ft | 383 kts | 17° |
| 2026-04-24 22:42 | 41.42534 | 29.71169 | 23232 ft | 386 kts | 17° |
| 2026-04-24 22:43 | 41.45098 | 29.72264 | 23679 ft | 388 kts | 17° |
| 2026-04-24 22:43 | 41.47686 | 29.73370 | 24107 ft | 390 kts | 17° |
| 2026-04-24 22:43 | 41.49403 | 29.74103 | 24400 ft | 391 kts | 17° |
| 2026-04-24 22:43 | 41.52180 | 29.74830 | 24812 ft | 393 kts | 3° |
| 2026-04-24 22:44 | 41.54942 | 29.74458 | 25241 ft | 396 kts | 347° |
| 2026-04-24 22:44 | 41.57492 | 29.73124 | 25638 ft | 400 kts | 335° |
| 2026-04-24 22:44 | 41.59963 | 29.71360 | 26048 ft | 402 kts | 334° |
| 2026-04-24 22:44 | 41.62416 | 29.69564 | 26408 ft | 405 kts | 334° |
| 2026-04-24 22:45 | 41.64914 | 29.67733 | 26773 ft | 407 kts | 334° |
| 2026-04-24 22:45 | 41.67410 | 29.65915 | 27135 ft | 408 kts | 334° |
| 2026-04-24 22:45 | 41.69881 | 29.64121 | 27476 ft | 410 kts | 334° |
| 2026-04-24 22:45 | 41.72396 | 29.62289 | 27816 ft | 413 kts | 333° |
| 2026-04-24 22:46 | 41.74873 | 29.60305 | 28167 ft | 415 kts | 330° |
| 2026-04-24 22:46 | 41.77286 | 29.58117 | 28484 ft | 419 kts | 327° |
| 2026-04-24 22:46 | 41.79611 | 29.55735 | 28807 ft | 422 kts | 324° |
| 2026-04-24 22:46 | 41.81874 | 29.53270 | 29122 ft | 424 kts | 324° |
| 2026-04-24 22:47 | 41.84172 | 29.50732 | 29415 ft | 426 kts | 324° |
| 2026-04-24 22:47 | 41.86460 | 29.48201 | 29719 ft | 428 kts | 324° |
| 2026-04-24 22:47 | 41.88767 | 29.45653 | 30061 ft | 429 kts | 324° |
| 2026-04-24 22:47 | 41.91051 | 29.43131 | 30486 ft | 428 kts | 324° |
| 2026-04-24 22:48 | 41.93346 | 29.40602 | 30922 ft | 426 kts | 324° |
| 2026-04-24 22:48 | 41.95629 | 29.38084 | 31329 ft | 425 kts | 324° |
| 2026-04-24 22:48 | 41.97904 | 29.35571 | 31719 ft | 425 kts | 324° |
| 2026-04-24 22:48 | 42.00178 | 29.33053 | 32110 ft | 424 kts | 323° |
| 2026-04-24 22:49 | 42.02455 | 29.30529 | 32501 ft | 423 kts | 323° |
| 2026-04-24 22:49 | 42.04726 | 29.28008 | 32880 ft | 423 kts | 323° |
| 2026-04-24 22:49 | 42.06996 | 29.25486 | 33222 ft | 423 kts | 323° |
| 2026-04-24 22:49 | 42.09261 | 29.22967 | 33597 ft | 422 kts | 323° |
| 2026-04-24 22:50 | 42.11586 | 29.20565 | 33952 ft | 420 kts | 328° |
| 2026-04-24 22:50 | 42.14083 | 29.18527 | 34291 ft | 417 kts | 335° |
| 2026-04-24 22:50 | 42.16690 | 29.16891 | 34634 ft | 415 kts | 340° |
| 2026-04-24 22:50 | 42.19444 | 29.15630 | 34943 ft | 412 kts | 346° |
| 2026-04-24 22:51 | 42.22209 | 29.14798 | 35233 ft | 410 kts | 352° |
| 2026-04-24 22:51 | 42.25058 | 29.14360 | 35526 ft | 408 kts | 358° |
| 2026-04-24 22:51 | 42.27882 | 29.14268 | 35795 ft | 407 kts | 0° |
| 2026-04-24 22:51 | 42.30678 | 29.14265 | 36042 ft | 407 kts | 0° |
| 2026-04-24 22:52 | 42.33519 | 29.14276 | 36284 ft | 407 kts | 0° |
| 2026-04-24 22:52 | 42.36342 | 29.14288 | 36504 ft | 407 kts | 0° |
| 2026-04-24 22:52 | 42.39182 | 29.14299 | 36717 ft | 408 kts | 0° |
| 2026-04-24 22:52 | 42.42025 | 29.14308 | 36923 ft | 409 kts | 360° |
| 2026-04-24 22:53 | 42.44880 | 29.14317 | 37145 ft | 410 kts | 360° |
| 2026-04-24 22:53 | 42.47726 | 29.14311 | 37361 ft | 411 kts | 360° |